createdAt,value
2018-07-13T00:01:53.370Z,100716.75
2018-07-13T00:04:21.172Z,100709.02
2018-07-13T00:06:48.987Z,100711.83
2018-07-13T00:09:17.209Z,100715.45
2018-07-13T00:11:45.092Z,100712.98
2018-07-13T00:14:22.696Z,100713.59
2018-07-13T00:16:51.849Z,100717.47
2018-07-13T00:19:20.405Z,100713.05
2018-07-13T00:21:48.285Z,100712.48
2018-07-13T00:24:16.084Z,100713.34
2018-07-13T00:26:43.959Z,100713.06
2018-07-13T00:29:12.015Z,100714.17
2018-07-13T00:31:40.998Z,100707.28
2018-07-13T00:34:08.957Z,100711.44
2018-07-13T00:36:45.253Z,100709.50
2018-07-13T00:39:15.609Z,100720.56
2018-07-13T00:41:43.508Z,100712.02
2018-07-13T00:44:11.865Z,100712.02
2018-07-13T00:46:39.832Z,100713.65
2018-07-13T00:49:07.685Z,100716.97
2018-07-13T00:51:35.443Z,100723.89
2018-07-13T00:54:03.257Z,100720.02
2018-07-13T00:56:31.116Z,100717.25
2018-07-13T00:58:59.350Z,100723.63
2018-07-13T01:01:27.253Z,100723.36
2018-07-13T01:03:55.149Z,100730.55
2018-07-13T01:06:23.067Z,100736.06
2018-07-13T01:08:50.910Z,100735.80
2018-07-13T01:11:18.893Z,100742.14
2018-07-13T01:13:46.738Z,100740.77
2018-07-13T01:16:14.790Z,100746.30
2018-07-13T01:18:43.847Z,100740.77
2018-07-13T01:21:11.624Z,100741.33
2018-07-13T01:23:39.482Z,100745.20
2018-07-13T01:26:07.277Z,100750.18
2018-07-13T01:28:35.042Z,100751.81
2018-07-13T01:31:02.909Z,100752.93
2018-07-13T01:33:30.809Z,100748.77
2018-07-13T01:35:58.618Z,100750.44
2018-07-13T01:38:26.484Z,100753.20
2018-07-13T01:40:54.356Z,100749.05
2018-07-13T01:43:22.165Z,100748.75
2018-07-13T01:45:50.046Z,100756.22
2018-07-13T01:48:18.445Z,100749.59
2018-07-13T01:50:46.256Z,100756.23
2018-07-13T01:53:14.069Z,100752.63
2018-07-13T01:55:42.086Z,100753.97
2018-07-13T01:58:09.872Z,100755.92
2018-07-13T02:00:37.733Z,100757.25
2018-07-13T02:03:05.778Z,100758.09
2018-07-13T02:05:33.661Z,100751.97
2018-07-13T02:08:01.536Z,100755.59
2018-07-13T02:10:29.354Z,100755.02
2018-07-13T02:12:57.211Z,100754.71
2018-07-13T02:15:25.093Z,100760.77
2018-07-13T02:17:52.899Z,100757.73
2018-07-13T02:20:20.761Z,100762.98
2018-07-13T02:22:48.626Z,100756.88
2018-07-13T02:25:16.527Z,100763.50
2018-07-13T02:27:44.381Z,100768.78
2018-07-13T02:30:12.188Z,100771.55
2018-07-13T02:32:40.086Z,100765.76
2018-07-13T02:35:07.921Z,100769.09
2018-07-13T02:37:35.817Z,100773.19
2018-07-13T02:40:03.874Z,100772.36
2018-07-13T02:42:31.748Z,100774.55
2018-07-13T02:44:59.590Z,100780.31
2018-07-13T02:47:27.469Z,100779.52
2018-07-13T02:49:55.330Z,100782.25
2018-07-13T02:52:23.205Z,100783.93
2018-07-13T02:54:51.057Z,100783.66
2018-07-13T02:57:18.933Z,100780.34
2018-07-13T02:59:46.777Z,100784.14
2018-07-13T03:02:14.585Z,100774.48
2018-07-13T03:04:42.386Z,100788.28
2018-07-13T03:07:10.153Z,100786.59
2018-07-13T03:09:37.922Z,100789.87
2018-07-13T03:12:05.795Z,100787.94
2018-07-13T03:14:33.647Z,100795.91
2018-07-13T03:17:01.469Z,100796.45
2018-07-13T03:19:29.269Z,100801.11
2018-07-13T03:21:57.166Z,100797.24
2018-07-13T03:24:24.949Z,100800.27
2018-07-13T03:26:52.854Z,100796.10
2018-07-13T03:29:20.777Z,100800.00
2018-07-13T03:31:48.642Z,100797.79
2018-07-13T03:34:16.543Z,100795.27
2018-07-13T03:36:44.268Z,100800.00
2018-07-13T03:39:12.085Z,100800.00
2018-07-13T03:41:39.941Z,100805.80
2018-07-13T03:44:07.791Z,100805.56
2018-07-13T03:46:35.611Z,100806.95
2018-07-13T03:49:03.522Z,100806.39
2018-07-13T03:51:31.336Z,100813.30
2018-07-13T03:53:59.249Z,100809.70
2018-07-13T03:56:27.185Z,100811.36
2018-07-13T03:58:55.069Z,100811.32
2018-07-13T04:01:22.913Z,100813.25
2018-07-13T04:03:50.804Z,100815.22
2018-07-13T04:06:18.528Z,100811.41
2018-07-13T04:08:46.361Z,100809.47
2018-07-13T04:11:14.291Z,100814.23
2018-07-13T04:13:42.151Z,100805.12
2018-07-13T04:16:10.056Z,100808.74
2018-07-13T04:18:37.956Z,100808.20
2018-07-13T04:21:06.013Z,100808.20
2018-07-13T04:23:33.897Z,100805.98
2018-07-13T04:26:01.763Z,100803.50
2018-07-13T04:28:29.697Z,100803.81
2018-07-13T04:30:57.585Z,100811.02
2018-07-13T04:33:25.389Z,100807.67
2018-07-13T04:35:53.266Z,100812.12
2018-07-13T04:38:21.151Z,100807.98
2018-07-13T04:40:49.090Z,100809.91
2018-07-13T04:43:16.937Z,100813.25
2018-07-13T04:45:44.830Z,100813.84
2018-07-13T04:48:12.776Z,100814.42
2018-07-13T04:50:40.632Z,100812.48
2018-07-13T04:53:08.570Z,100824.08
2018-07-13T04:55:36.579Z,100821.59
2018-07-13T04:58:04.493Z,100819.44
2018-07-13T05:00:32.474Z,100828.61
2018-07-13T05:03:00.392Z,100822.00
2018-07-13T05:05:28.320Z,100826.69
2018-07-13T05:07:56.273Z,100826.16
2018-07-13T05:10:24.150Z,100825.05
2018-07-13T05:12:52.090Z,100829.20
2018-07-13T05:15:20.776Z,100825.91
2018-07-13T05:17:48.728Z,100823.72
2018-07-13T05:20:16.609Z,100823.45
2018-07-13T05:22:44.588Z,100828.99
2018-07-13T05:25:12.669Z,100825.11
2018-07-13T05:27:40.801Z,100830.10
2018-07-13T05:30:08.694Z,100830.36
2018-07-13T05:32:36.809Z,100828.72
2018-07-13T05:35:04.748Z,100835.07
2018-07-13T05:37:32.731Z,100833.42
2018-07-13T05:40:02.271Z,100830.69
2018-07-13T05:42:30.118Z,100835.09
2018-07-13T05:44:58.102Z,100830.93
2018-07-13T05:47:26.160Z,100835.64
2018-07-13T05:49:54.089Z,100832.30
2018-07-13T05:52:22.041Z,100830.04
2018-07-13T05:54:50.008Z,100833.06
2018-07-13T05:57:17.902Z,100840.20
2018-07-13T05:59:45.860Z,100836.60
2018-07-13T06:02:13.763Z,100831.31
2018-07-13T06:04:41.733Z,100836.80
2018-07-13T06:07:09.709Z,100842.87
2018-07-13T06:09:37.683Z,100841.95
2018-07-13T06:12:06.489Z,100849.19
2018-07-13T06:14:34.380Z,100848.80
2018-07-13T06:17:02.187Z,100850.95
2018-07-13T06:19:30.038Z,100853.11
2018-07-13T06:21:57.936Z,100848.83
2018-07-13T06:24:25.853Z,100852.05
2018-07-13T06:26:53.790Z,100848.97
2018-07-13T06:29:21.818Z,100851.34
2018-07-13T06:31:49.701Z,100856.21
2018-07-13T06:34:17.688Z,100848.80
2018-07-13T06:36:45.777Z,100845.84
2018-07-13T06:39:13.770Z,100846.23
2018-07-13T06:41:41.952Z,100847.40
2018-07-13T06:44:09.784Z,100850.70
2018-07-13T06:46:43.656Z,100845.38
2018-07-13T06:49:11.581Z,100842.79
2018-07-13T06:51:39.623Z,100851.63
2018-07-13T06:54:08.201Z,100846.22
2018-07-13T06:56:36.132Z,100848.06
2018-07-13T06:59:19.052Z,100845.39
2018-07-13T07:01:47.833Z,100843.02
2018-07-13T07:04:38.258Z,100849.20
2018-07-13T07:07:14.187Z,100849.41
2018-07-13T07:09:59.953Z,100855.47
2018-07-13T07:12:53.789Z,100850.72
2018-07-13T07:15:22.758Z,100853.59
2018-07-13T07:17:51.019Z,100858.84
2018-07-13T07:20:18.901Z,100857.23
2018-07-13T07:22:47.617Z,100856.92
2018-07-13T07:25:15.964Z,100857.72
2018-07-13T07:27:44.505Z,100856.33
2018-07-13T07:30:12.635Z,100857.05
2018-07-13T07:32:40.538Z,100858.80
2018-07-13T07:35:08.862Z,100855.97
2018-07-13T07:37:36.840Z,100857.05
2018-07-13T07:40:05.077Z,100852.55
2018-07-13T07:42:33.344Z,100856.92
2018-07-13T07:45:01.373Z,100858.44
2018-07-13T07:47:29.265Z,100848.20
2018-07-13T07:49:57.227Z,100852.12
2018-07-13T07:52:25.097Z,100844.99
2018-07-13T07:54:53.100Z,100846.60
2018-07-13T07:57:20.990Z,100839.49
2018-07-13T07:59:48.941Z,100846.08
2018-07-13T08:02:16.910Z,100854.93
2018-07-13T08:04:44.956Z,100852.95
2018-07-13T08:07:13.081Z,100849.49
2018-07-13T08:09:40.665Z,100845.47
2018-07-13T08:12:08.641Z,100851.81
2018-07-13T08:14:36.569Z,100846.95
2018-07-13T08:17:04.417Z,100853.45
2018-07-13T08:19:32.279Z,100847.76
2018-07-13T08:22:08.415Z,100853.87
2018-07-13T08:24:36.285Z,100836.42
2018-07-13T08:27:04.742Z,100838.46
2018-07-13T08:29:36.702Z,100831.95
2018-07-13T08:32:04.897Z,100840.82
2018-07-13T08:34:32.753Z,100842.75
2018-07-13T08:37:00.622Z,100838.73
2018-07-13T08:39:28.519Z,100845.85
2018-07-13T08:41:56.456Z,100840.08
2018-07-13T08:44:24.390Z,100843.08
2018-07-13T08:46:52.459Z,100835.08
2018-07-13T08:49:20.362Z,100841.05
2018-07-13T08:51:48.352Z,100832.58
2018-07-13T08:54:16.317Z,100835.04
2018-07-13T08:56:44.318Z,100831.72
2018-07-13T08:59:12.245Z,100834.96
2018-07-13T09:01:40.157Z,100832.20
2018-07-13T09:04:08.054Z,100836.72
2018-07-13T09:06:36.529Z,100831.18
2018-07-13T09:09:11.001Z,100827.61
2018-07-13T09:11:39.125Z,100830.66
2018-07-13T09:14:07.104Z,100823.44
2018-07-13T09:16:35.150Z,100825.88
2018-07-13T09:19:03.157Z,100818.48
2018-07-13T09:21:31.096Z,100822.93
2018-07-13T09:23:59.429Z,100821.55
2018-07-13T09:26:27.821Z,100821.16
2018-07-13T09:28:55.992Z,100829.66
2018-07-13T09:31:24.012Z,100814.44
2018-07-13T09:33:52.133Z,100818.85
2018-07-13T09:36:20.027Z,100819.99
2018-07-13T09:38:48.084Z,100818.81
2018-07-13T09:41:16.065Z,100820.77
2018-07-13T09:43:44.049Z,100818.25
2018-07-13T09:46:11.998Z,100819.96
2018-07-13T09:48:39.997Z,100819.52
2018-07-13T09:51:07.877Z,100822.59
2018-07-13T09:53:36.405Z,100811.84
2018-07-13T09:56:04.374Z,100815.94
2018-07-13T09:58:37.366Z,100809.19
2018-07-13T10:01:11.593Z,100807.88
2018-07-13T10:03:39.489Z,100801.22
2018-07-13T10:06:07.385Z,100798.70
2018-07-13T10:08:35.528Z,100792.23
2018-07-13T10:11:03.489Z,100801.86
2018-07-13T10:13:31.522Z,100799.98
2018-07-13T10:16:00.263Z,100793.77
2018-07-13T10:18:28.257Z,100796.39
2018-07-13T10:20:57.929Z,100794.00
2018-07-13T10:23:26.366Z,100795.88
2018-07-13T10:26:02.578Z,100792.43
2018-07-13T10:28:31.727Z,100782.53
2018-07-13T10:31:00.271Z,100788.25
2018-07-13T10:33:28.219Z,100782.98
2018-07-13T10:35:57.317Z,100790.55
2018-07-13T10:38:25.258Z,100785.97
2018-07-13T10:40:53.142Z,100780.61
2018-07-13T10:43:21.022Z,100777.06
2018-07-13T10:45:49.051Z,100775.41
2018-07-13T10:48:17.534Z,100773.89
2018-07-13T10:50:45.350Z,100778.59
2018-07-13T10:53:13.437Z,100779.65
2018-07-13T10:55:41.367Z,100770.22
2018-07-13T10:58:09.228Z,100765.29
2018-07-13T11:00:37.084Z,100767.35
2018-07-13T11:03:04.905Z,100765.84
2018-07-13T11:05:32.730Z,100762.62
2018-07-13T11:08:00.648Z,100765.39
2018-07-13T11:10:28.474Z,100762.10
2018-07-13T11:12:56.327Z,100756.47
2018-07-13T11:15:24.190Z,100750.53
2018-07-13T11:17:52.089Z,100745.55
2018-07-13T11:20:19.913Z,100744.48
2018-07-13T11:22:47.854Z,100737.14
2018-07-13T11:25:15.679Z,100737.11
2018-07-13T11:27:43.572Z,100736.04
2018-07-13T11:30:11.529Z,100729.16
2018-07-13T11:32:39.325Z,100734.63
2018-07-13T11:35:07.319Z,100727.22
2018-07-13T11:37:37.219Z,100717.17
2018-07-13T11:40:05.389Z,100720.27
2018-07-13T11:42:33.212Z,100715.03
2018-07-13T11:45:01.117Z,100716.19
2018-07-13T11:47:28.966Z,100707.95
2018-07-13T11:49:56.873Z,100706.31
2018-07-13T11:52:24.737Z,100705.71
2018-07-13T11:54:52.665Z,100704.45
2018-07-13T11:57:20.461Z,100708.02
2018-07-13T11:59:48.303Z,100703.86
2018-07-13T12:02:16.102Z,100695.14
2018-07-13T12:04:43.917Z,100698.53
2018-07-13T12:07:11.801Z,100694.17
2018-07-13T12:09:39.586Z,100686.58
2018-07-13T12:12:07.476Z,100689.13
2018-07-13T12:14:35.345Z,100685.66
2018-07-13T12:17:03.152Z,100684.89
2018-07-13T12:19:30.968Z,100679.55
2018-07-13T12:21:58.837Z,100682.00
2018-07-13T12:24:26.687Z,100682.37
2018-07-13T12:26:54.536Z,100678.59
2018-07-13T12:29:22.377Z,100673.81
2018-07-13T12:31:50.168Z,100667.72
2018-07-13T12:34:18.016Z,100668.28
2018-07-13T12:36:45.869Z,100672.70
2018-07-13T12:39:13.751Z,100669.16
2018-07-13T12:41:41.632Z,100672.02
2018-07-13T12:44:09.530Z,100666.92
2018-07-13T12:46:37.333Z,100662.80
2018-07-13T12:49:05.228Z,100660.48
2018-07-13T12:51:33.601Z,100657.35
2018-07-13T12:54:01.558Z,100661.42
2018-07-13T12:56:29.261Z,100653.48
2018-07-13T12:58:57.052Z,100656.60
2018-07-13T13:01:24.984Z,100658.33
2018-07-13T13:03:52.793Z,100662.41
2018-07-13T13:06:20.621Z,100659.98
2018-07-13T13:08:48.377Z,100658.29
2018-07-13T13:11:16.276Z,100659.49
2018-07-13T13:13:44.156Z,100656.16
2018-07-13T13:16:12.377Z,100663.53
2018-07-13T13:18:40.181Z,100664.13
2018-07-13T13:21:08.062Z,100661.42
2018-07-13T13:23:35.920Z,100664.73
2018-07-13T13:26:03.737Z,100669.83
2018-07-13T13:28:31.521Z,100662.08
2018-07-13T13:30:59.457Z,100664.40
2018-07-13T13:33:27.330Z,100672.53
2018-07-13T13:35:55.125Z,100659.91
2018-07-13T13:38:23.025Z,100662.87
2018-07-13T13:40:51.194Z,100666.00
2018-07-13T13:43:19.041Z,100665.62
2018-07-13T13:45:46.797Z,100663.25
2018-07-13T13:48:14.626Z,100665.89
2018-07-13T13:50:42.502Z,100662.25
2018-07-13T13:53:10.330Z,100674.49
2018-07-13T13:55:38.229Z,100674.55
2018-07-13T13:58:06.039Z,100676.61
2018-07-13T14:00:33.973Z,100665.98
2018-07-13T14:03:01.818Z,100665.73
2018-07-13T14:05:30.452Z,100657.27
2018-07-13T14:07:58.245Z,100654.02
2018-07-13T14:10:26.177Z,100659.98
2018-07-13T14:12:54.065Z,100663.50
2018-07-13T14:15:21.941Z,100657.12
2018-07-13T14:17:49.806Z,100666.86
2018-07-13T14:20:17.699Z,100675.25
2018-07-13T14:22:45.608Z,100674.61
2018-07-13T14:25:13.457Z,100668.63
2018-07-13T14:27:41.355Z,100675.34
2018-07-13T14:30:09.243Z,100680.92
2018-07-13T14:32:37.078Z,100685.34
2018-07-13T14:35:05.264Z,100693.35
2018-07-13T14:37:33.174Z,100700.67
2018-07-13T14:40:01.162Z,100698.02
2018-07-13T14:42:29.168Z,100704.99
2018-07-13T14:44:57.082Z,100703.36
2018-07-13T14:47:24.945Z,100699.34
2018-07-13T14:49:52.841Z,100702.62
2018-07-13T14:52:20.775Z,100693.18
2018-07-13T14:54:48.685Z,100685.22
2018-07-13T14:57:16.560Z,100676.15
2018-07-13T14:59:44.589Z,100679.05
2018-07-13T15:02:12.404Z,100673.91
2018-07-13T15:04:40.365Z,100676.51
2018-07-13T15:07:08.227Z,100675.42
2018-07-13T15:09:36.126Z,100678.19
2018-07-13T15:12:03.982Z,100671.03
2018-07-13T15:14:31.781Z,100672.67
2018-07-13T15:16:59.644Z,100676.14
2018-07-13T15:19:27.517Z,100677.17
2018-07-13T15:21:55.366Z,100675.94
2018-07-13T15:24:24.073Z,100674.79
2018-07-13T15:26:51.897Z,100673.19
2018-07-13T15:29:19.810Z,100680.78
2018-07-13T15:31:47.586Z,100686.91
2018-07-13T15:34:15.529Z,100690.36
2018-07-13T15:36:43.385Z,100690.41
2018-07-13T15:39:11.260Z,100686.18
2018-07-13T15:41:39.145Z,100685.58
2018-07-13T15:44:06.972Z,100678.30
2018-07-13T15:46:34.740Z,100675.70
2018-07-13T15:49:02.541Z,100675.92
2018-07-13T15:51:30.407Z,100674.52
2018-07-13T15:53:58.328Z,100677.95
2018-07-13T15:56:26.189Z,100678.36
2018-07-13T15:58:54.108Z,100671.52
2018-07-13T16:01:21.942Z,100672.40
2018-07-13T16:03:49.767Z,100667.45
2018-07-13T16:06:17.602Z,100664.90
2018-07-13T16:08:45.464Z,100656.38
2018-07-13T16:11:13.317Z,100653.11
2018-07-13T16:13:41.237Z,100652.25
2018-07-13T16:16:09.095Z,100646.53
2018-07-13T16:18:36.916Z,100645.55
2018-07-13T16:21:04.761Z,100640.27
2018-07-13T16:23:32.569Z,100638.17
2018-07-13T16:26:00.447Z,100638.36
2018-07-13T16:28:28.307Z,100638.17
2018-07-13T16:30:56.183Z,100639.17
2018-07-13T16:33:24.043Z,100638.50
2018-07-13T16:35:51.944Z,100630.59
2018-07-13T16:38:19.868Z,100630.22
2018-07-13T16:40:47.774Z,100630.33
2018-07-13T16:43:15.680Z,100624.30
2018-07-13T16:45:43.529Z,100618.91
2018-07-13T16:48:11.386Z,100621.29
2018-07-13T16:50:39.293Z,100619.06
2018-07-13T16:53:07.085Z,100623.97
2018-07-13T16:55:35.029Z,100622.97
2018-07-13T16:58:02.888Z,100615.28
2018-07-13T17:00:30.726Z,100619.93
2018-07-13T17:02:58.629Z,100621.27
2018-07-13T17:05:26.489Z,100618.81
2018-07-13T17:07:54.269Z,100622.78
2018-07-13T17:10:22.051Z,100617.16
2018-07-13T17:12:49.856Z,100618.59
2018-07-13T17:15:17.655Z,100620.00
2018-07-13T17:17:45.446Z,100612.07
2018-07-13T17:20:13.345Z,100621.25
2018-07-13T17:22:41.046Z,100619.39
2018-07-13T17:25:08.876Z,100617.03
2018-07-13T17:27:36.744Z,100612.36
2018-07-13T17:30:05.873Z,100612.69
2018-07-13T17:32:33.735Z,100610.02
2018-07-13T17:35:01.493Z,100612.02
2018-07-13T17:37:29.291Z,100615.87
2018-07-13T17:39:57.010Z,100607.11
2018-07-13T17:42:24.856Z,100610.25
2018-07-13T17:44:52.628Z,100603.21
2018-07-13T17:47:20.419Z,100607.54
2018-07-13T17:49:48.235Z,100609.50
2018-07-13T17:52:16.091Z,100605.97
2018-07-13T17:54:43.927Z,100604.90
2018-07-13T17:57:11.744Z,100602.38
2018-07-13T17:59:39.603Z,100603.48
2018-07-13T18:02:07.463Z,100609.28
2018-07-13T18:04:35.251Z,100609.11
2018-07-13T18:07:03.026Z,100613.28
2018-07-13T18:09:30.857Z,100614.47
2018-07-13T18:11:58.735Z,100612.32
2018-07-13T18:14:26.467Z,100612.75
2018-07-13T18:16:54.276Z,100619.38
2018-07-13T18:19:22.061Z,100606.54
2018-07-13T18:21:49.811Z,100613.50
2018-07-13T18:24:17.556Z,100613.33
2018-07-13T18:26:45.339Z,100619.86
2018-07-13T18:29:13.132Z,100622.85
2018-07-13T18:31:41.123Z,100622.53
2018-07-13T18:34:08.952Z,100627.67
2018-07-13T18:36:36.816Z,100624.00
2018-07-13T18:39:05.203Z,100626.56
2018-07-13T18:41:33.127Z,100619.66
2018-07-13T18:44:00.992Z,100628.59
2018-07-13T18:46:28.784Z,100625.20
2018-07-13T18:48:56.584Z,100620.36
2018-07-13T18:51:24.402Z,100622.03
2018-07-13T18:53:52.171Z,100624.50
2018-07-13T18:56:19.995Z,100623.91
2018-07-13T18:58:47.919Z,100627.98
2018-07-13T19:01:15.641Z,100627.03
2018-07-13T19:03:43.460Z,100626.61
2018-07-13T19:06:11.319Z,100634.63
2018-07-13T19:08:39.430Z,100641.06
2018-07-13T19:11:07.222Z,100633.89
2018-07-13T19:13:35.064Z,100636.78
2018-07-13T19:16:02.912Z,100639.16
2018-07-13T19:18:31.145Z,100637.59
2018-07-13T19:20:58.875Z,100639.16
2018-07-13T19:23:26.636Z,100638.70
2018-07-13T19:25:54.427Z,100641.17
2018-07-13T19:28:22.241Z,100642.81
2018-07-13T19:30:50.037Z,100644.35
2018-07-13T19:33:17.899Z,100649.69
2018-07-13T19:35:45.728Z,100654.06
2018-07-13T19:38:13.514Z,100655.00
2018-07-13T19:40:41.355Z,100663.44
2018-07-13T19:43:09.195Z,100672.09
2018-07-13T19:45:37.863Z,100670.16
2018-07-13T19:48:05.947Z,100668.98
2018-07-13T19:50:33.879Z,100676.67
2018-07-13T19:53:01.639Z,100675.28
2018-07-13T19:55:29.746Z,100675.75
2018-07-13T19:57:58.271Z,100680.67
2018-07-13T20:00:27.126Z,100690.17
2018-07-13T20:02:55.004Z,100689.64
2018-07-13T20:05:25.384Z,100688.68
2018-07-13T20:07:55.533Z,100701.23
2018-07-13T20:10:25.719Z,100694.91
2018-07-13T20:12:53.547Z,100698.12
2018-07-13T20:15:21.387Z,100698.86
2018-07-13T20:17:49.170Z,100708.16
2018-07-13T20:20:16.959Z,100707.95
2018-07-13T20:22:44.815Z,100708.34
2018-07-13T20:25:12.671Z,100698.84
2018-07-13T20:27:40.439Z,100710.30
2018-07-13T20:30:09.261Z,100709.58
2018-07-13T20:32:37.112Z,100709.89
2018-07-13T20:35:05.044Z,100712.48
2018-07-13T20:37:32.912Z,100712.17
2018-07-13T20:40:00.763Z,100717.25
2018-07-13T20:42:29.026Z,100718.87
2018-07-13T20:44:56.835Z,100724.78
2018-07-13T20:47:24.683Z,100712.32
2018-07-13T20:49:52.451Z,100722.72
2018-07-13T20:52:20.280Z,100724.48
2018-07-13T20:54:48.019Z,100728.07
2018-07-13T20:57:19.847Z,100723.74
2018-07-13T20:59:48.501Z,100720.50
2018-07-13T21:02:16.332Z,100722.86
2018-07-13T21:04:44.159Z,100721.55
2018-07-13T21:07:12.370Z,100730.94
2018-07-13T21:09:40.127Z,100732.70
2018-07-13T21:12:07.967Z,100735.58
2018-07-13T21:14:35.772Z,100737.02
2018-07-13T21:17:03.647Z,100736.61
2018-07-13T21:19:31.421Z,100735.69
2018-07-13T21:21:59.319Z,100743.88
2018-07-13T21:24:27.155Z,100741.66
2018-07-13T21:26:55.029Z,100739.71
2018-07-13T21:29:23.067Z,100745.56
2018-07-13T21:31:54.747Z,100747.66
2018-07-13T21:34:22.916Z,100754.36
2018-07-13T21:36:50.716Z,100748.49
2018-07-13T21:39:18.522Z,100754.20
2018-07-13T21:41:46.307Z,100757.02
2018-07-13T21:44:14.258Z,100758.00
2018-07-13T21:46:42.372Z,100759.78
2018-07-13T21:49:12.760Z,100762.84
2018-07-13T21:51:43.607Z,100762.01
2018-07-13T21:54:11.444Z,100754.19
2018-07-13T21:56:39.228Z,100757.92
2018-07-13T21:59:07.721Z,100755.59
2018-07-13T22:01:35.605Z,100760.01
2018-07-13T22:04:03.528Z,100755.59
2018-07-13T22:06:31.438Z,100756.72
2018-07-13T22:08:59.207Z,100761.48
2018-07-13T22:11:27.071Z,100765.61
2018-07-13T22:13:54.887Z,100762.30
2018-07-13T22:16:22.748Z,100756.80
2018-07-13T22:18:50.552Z,100764.00
2018-07-13T22:21:18.279Z,100757.36
2018-07-13T22:23:46.136Z,100760.73
2018-07-13T22:26:13.888Z,100759.96
2018-07-13T22:28:41.720Z,100765.22
2018-07-13T22:31:09.591Z,100764.91
2018-07-13T22:33:37.391Z,100777.58
2018-07-13T22:36:05.280Z,100773.72
2018-07-13T22:38:33.104Z,100772.89
2018-07-13T22:41:00.911Z,100778.23
2018-07-13T22:43:29.127Z,100775.48
2018-07-13T22:45:57.132Z,100769.37
2018-07-13T22:48:24.955Z,100770.58
2018-07-13T22:50:52.739Z,100769.75
2018-07-13T22:53:20.520Z,100768.70
2018-07-13T22:55:48.439Z,100771.17
2018-07-13T22:58:16.211Z,100766.29
2018-07-13T23:00:44.035Z,100776.95
2018-07-13T23:03:11.944Z,100773.41
2018-07-13T23:05:39.706Z,100773.11
2018-07-13T23:08:07.504Z,100772.87
2018-07-13T23:10:35.285Z,100776.56
2018-07-13T23:13:03.147Z,100779.33
2018-07-13T23:15:31.041Z,100769.59
2018-07-13T23:17:58.738Z,100765.77
2018-07-13T23:20:26.588Z,100774.67
2018-07-13T23:22:54.440Z,100776.02
2018-07-13T23:25:22.315Z,100775.52
2018-07-13T23:27:50.125Z,100773.62
2018-07-13T23:30:17.947Z,100765.59
2018-07-13T23:32:45.795Z,100772.52
2018-07-13T23:35:13.619Z,100769.23
2018-07-13T23:37:41.387Z,100773.61
2018-07-13T23:40:09.227Z,100767.55
2018-07-13T23:42:37.123Z,100766.44
2018-07-13T23:45:04.932Z,100764.54
2018-07-13T23:47:32.771Z,100767.59
2018-07-13T23:50:00.543Z,100768.17
2018-07-13T23:52:28.375Z,100765.75
2018-07-13T23:54:56.291Z,100760.44
2018-07-13T23:57:24.083Z,100763.81
2018-07-13T23:59:51.830Z,100765.19
